Řízení letového provozu České republiky  
Aktualizace dat:  21.01.2020 22:29:27 UTC English version
   METEO Zobrazení stránky:  21.01.2020 22:29:22 UTC  
vysvětlivky
METAR EDDB 212220Z 25009KT 9999 BKN014 01/M01 Q1035 NOSIG=
METAR EDDC 212220Z 22005KT 210V280 CAVOK M02/M04 Q1036=
METAR EDDE 212220Z 22008KT CAVOK M05/M07 Q1036=
METAR EDDF 212220Z VRB01KT CAVOK M03/M04 Q1038 NOSIG=
METAR EDDM 212220Z 12004KT 080V160 5000 BR OVC004 M03/M04 Q1036 TEMPO 4000=
METAR EDDN 212220Z 13007KT 5000 BR OVC004 M02/M03 Q1037=
METAR EDDP 212220Z 23005KT CAVOK M03/M04 Q1036 NOSIG=
METAR EDDT 212220Z 28009KT 250V310 9999 BKN013 03/00 Q1035=
METAR EDQM NIL
METAR EPBY 212200Z 25013KT 7000 OVC006 03/01 Q1029=
METAR EPGD 212200Z 28021KT 9999 -DZRA BKN009 05/04 Q1024=
METAR EPKK 212200Z 26008KT CAVOK M01/M03 Q1033=
METAR EPKT 212200Z 23009KT 190V270 6000 NSC M02/M04 Q1033=
METAR EPLL 212200Z 25015KT 9999 BKN018 01/M03 Q1031=
METAR EPPO 212200Z 27010KT 9999 OVC015 02/M01 Q1032=
METAR EPRZ 212200Z 23014KT CAVOK 01/M04 Q1032=
METAR EPWA 212200Z 28011KT 240V310 9999 BKN016 02/M02 Q1029 BECMG BKN014=
METAR EPWR 212200Z 27006KT CAVOK M01/M05 Q1034=
METAR LHBP 212200Z 22004KT 4400 BR BKN014 M00/M00 Q1039 NOSIG=
METAR LHSM 212145Z AUTO 17004KT 3900 BR NCD M03/M03 Q1039=
METAR LKBC 212230Z AUTO 14003KT 1200 BR OVC002 M03/M04 Q1036=
METAR LKCV 212200Z 25003KT 8000 OVC008 M02/M04 Q1038 NOSIG RMK GRN GRN=
METAR LKKB 212200Z 17004KT 130V190 6000 OVC006 M02/M03 Q1037 NOSIG RMK YLO=
METAR LKKU NIL
METAR LKKV 212200Z VRB02KT CAVOK M07/M07 Q1035 RMK REG QNH 1031=
METAR LKLN 212230Z AUTO 18004KT 5000 BR OVC004 M03/M03 Q1037=
METAR LKMT 212200Z 23018KT 8000 OVC009 M01/M02 Q1036 NOSIG RMK REG QNH 1031=
METAR LKNA 212200Z 26004KT 230V290 1600 BR OVC002 M04/M04 Q1036 RMK AMB=
METAR LKPD 212200Z 25004KT 9999 OVC008 M02/M04 Q1038 RMK GRN=
METAR LKPJ 212200Z AUTO 26003KT 210V310 9999 OVC009 M02/M03 Q1038=
METAR LKPR 212200Z 19006KT 160V230 0900 R24/1400N R30/1300U FZFG VV002 M03/M03 Q1037 NOSIG RMK REG QNH 1031=
METAR LKTB 212200Z 30005KT 9999 OVC011 M01/M03 Q1038 R27/21//95 NOSIG RMK REG QNH 1031=
METAR LKVO NIL
METAR LOWI 212220Z AUTO VRB02KT 9999 NSC M06/M07 Q1036=
METAR LOWL 212220Z AUTO VRB02KT 6000 FEW005 BKN006 M01/M02 Q1038=
METAR LOWS 212220Z AUTO VRB01KT 6000 BKN003 M03/M03 Q1037=
METAR LOWW 212220Z VRB02KT 3200 BR SCT001 BKN002 M01/M01 Q1038 R88/19//95 BECMG 2000 TEMPO BKN001=
METAR LZIB 212200Z 04002KT 0350 R31/0900N R22/0700N FZFG BKN001 OVC002 M01/M01 Q1039 R13/CLRD//=
METAR LZKZ 212200Z 20006KT 5000 BR OVC004 M02/M03 Q1038=
METAR LZMC 212100Z 00000KT 4000 BR SCT004 BKN006 OVC007 M01/M01 Q1039=
METAR LZPP 212200Z AUTO VRB01KT 3400 BR OVC003/// M02/M03 Q1039=
METAR LZSL 212200Z 06001KT 0600 R36/1400U FZFG OVC002 M04/M05 Q1037=
METAR LZTT 212200Z VRB01KT 0100 R27/0400N FZFG OVC001 M06/M07 Q1034=
METAR LZZI 212200Z VRB01KT 4000 BR OVC004 M03/M04 Q1038=